Weather at João Paulo II Airport

Public forecast

Using degrees Celsius for public forecast. Weather courtesy of forecast.io.

Current aviation weather report (METAR) for João Paulo II Airport

2024/05/20 02:30 (retrieved 22 minutes ago)

LPPD 200230Z 26004KT 9999 FEW025 BKN035 17/12 Q1021

Closest aviation forecast (TAF) to João Paulo II Airport

Forecast is more than 6 hours old.

Closest forecast is Ovar Air Base, 813.1 nm (1,505.9 km) ENE.

2024/05/19 20:06 Ammendment (retrieved 7 hours ago)

TAF AMD TAF AMD LPOV 192004Z 1920/2018 CNL